createdAt,value
2023-12-16T00:02:09.214Z,100297.84
2023-12-16T00:04:41.813Z,100306.94
2023-12-16T00:07:12.463Z,100324.94
2023-12-16T00:09:45.646Z,100318.28
2023-12-16T00:12:17.175Z,100322.94
2023-12-16T00:14:48.101Z,100329.09
2023-12-16T00:17:18.643Z,100324.03
2023-12-16T00:19:49.229Z,100321.28
2023-12-16T00:22:19.937Z,100316.16
2023-12-16T00:24:53.102Z,100306.63
2023-12-16T00:27:24.020Z,100319.28
2023-12-16T00:29:54.627Z,100313.63
2023-12-16T00:32:25.713Z,100317.66
2023-12-16T00:34:56.489Z,100313.13
2023-12-16T00:37:27.136Z,100317.97
2023-12-16T00:40:00.497Z,100317.97
2023-12-16T00:42:31.489Z,100306.13
2023-12-16T00:45:02.329Z,100311.25
2023-12-16T00:47:32.927Z,100317.47
2023-12-16T00:50:03.575Z,100318.47
2023-12-16T00:52:34.146Z,100323.53
2023-12-16T00:55:07.783Z,100330.31
2023-12-16T00:57:39.531Z,100322.72
2023-12-16T01:00:11.474Z,100328.72
2023-12-16T01:02:42.035Z,100335.38
2023-12-16T01:05:13.084Z,100334.25
2023-12-16T01:07:43.889Z,100343.88
2023-12-16T01:10:17.326Z,100350.34
2023-12-16T01:12:49.079Z,100349.44
2023-12-16T01:15:19.861Z,100359.66
2023-12-16T01:17:50.598Z,100364.00
2023-12-16T01:20:21.474Z,100362.28
2023-12-16T01:22:52.315Z,100362.41
2023-12-16T01:25:25.478Z,100360.88
2023-12-16T01:27:56.094Z,100352.69
2023-12-16T01:30:27.330Z,100354.09
2023-12-16T01:32:58.291Z,100354.09
2023-12-16T01:35:28.985Z,100347.63
2023-12-16T01:37:59.565Z,100348.53
2023-12-16T01:40:32.652Z,100346.38
2023-12-16T01:43:07.974Z,100358.13
2023-12-16T01:45:38.968Z,100359.75
2023-12-16T01:48:12.150Z,100360.97
2023-12-16T01:50:43.532Z,100345.19
2023-12-16T01:53:14.363Z,100341.75
2023-12-16T01:55:48.045Z,100334.66
2023-12-16T01:58:19.351Z,100342.84
2023-12-16T02:00:51.385Z,100346.91
2023-12-16T02:03:23.626Z,100345.09
2023-12-16T02:05:54.174Z,100356.72
2023-12-16T02:08:24.817Z,100368.06
2023-12-16T02:10:57.966Z,100365.63
2023-12-16T02:13:28.661Z,100358.03
2023-12-16T02:15:59.279Z,100367.53
2023-12-16T02:18:30.962Z,100363.09
2023-12-16T02:21:02.498Z,100358.75
2023-12-16T02:23:35.626Z,100352.88
2023-12-16T02:26:06.251Z,100362.41
2023-12-16T02:28:37.030Z,100373.91
2023-12-16T02:31:08.474Z,100377.16
2023-12-16T02:33:39.882Z,100370.19
2023-12-16T02:36:11.865Z,100369.09
2023-12-16T02:38:45.047Z,100371.50
2023-12-16T02:41:15.581Z,100376.97
2023-12-16T02:43:46.142Z,100383.53
2023-12-16T02:46:16.812Z,100372.72
2023-12-16T02:48:47.553Z,100374.41
2023-12-16T02:51:22.104Z,100376.56
2023-12-16T02:53:55.285Z,100377.75
2023-12-16T02:56:25.814Z,100375.84
2023-12-16T02:58:56.320Z,100375.53
2023-12-16T03:01:27.647Z,100369.34
2023-12-16T03:03:58.298Z,100365.56
2023-12-16T03:06:28.910Z,100361.84
2023-12-16T03:09:02.048Z,100363.50
2023-12-16T03:11:32.696Z,100382.75
2023-12-16T03:14:03.328Z,100387.81
2023-12-16T03:16:36.062Z,100392.41
2023-12-16T03:19:06.911Z,100393.28
2023-12-16T03:21:38.214Z,100386.25
2023-12-16T03:24:14.623Z,100379.41
2023-12-16T03:26:46.597Z,100387.69
2023-12-16T03:29:17.226Z,100382.00
2023-12-16T03:31:47.732Z,100383.56
2023-12-16T03:34:18.370Z,100378.22
2023-12-16T03:36:48.960Z,100386.31
2023-12-16T03:39:22.058Z,100386.44
2023-12-16T03:41:52.594Z,100382.56
2023-12-16T03:44:23.228Z,100373.53
2023-12-16T03:46:53.757Z,100377.41
2023-12-16T03:49:24.361Z,100391.13
2023-12-16T03:51:57.353Z,100387.69
2023-12-16T03:54:30.620Z,100387.59
2023-12-16T03:57:01.291Z,100389.13
2023-12-16T03:59:31.913Z,100384.34
2023-12-16T04:02:02.478Z,100387.63
2023-12-16T04:04:34.389Z,100389.16
2023-12-16T04:07:05.255Z,100387.63
2023-12-16T04:09:38.420Z,100387.25
2023-12-16T04:12:10.624Z,100389.75
2023-12-16T04:14:42.246Z,100403.56
2023-12-16T04:17:12.839Z,100403.75
2023-12-16T04:19:52.274Z,100399.22
2023-12-16T04:22:23.511Z,100399.84
2023-12-16T04:24:59.223Z,100403.84
2023-12-16T04:27:30.712Z,100396.53
2023-12-16T04:30:01.300Z,100398.59
2023-12-16T04:32:31.870Z,100391.81
2023-12-16T04:35:02.512Z,100402.16
2023-12-16T04:37:33.097Z,100401.47
2023-12-16T04:40:06.665Z,100395.84
2023-12-16T04:42:37.202Z,100392.88
2023-12-16T04:45:09.601Z,100389.16
2023-12-16T04:47:41.034Z,100391.31
2023-12-16T04:50:12.679Z,100388.97
2023-12-16T04:52:43.467Z,100393.09
2023-12-16T04:55:17.043Z,100401.69
2023-12-16T04:57:47.652Z,100397.47
2023-12-16T05:00:19.360Z,100402.16
2023-12-16T05:02:49.921Z,100393.72
2023-12-16T05:05:20.625Z,100394.09
2023-12-16T05:07:51.171Z,100395.97
2023-12-16T05:10:24.630Z,100402.50
2023-12-16T05:12:55.211Z,100394.13
2023-12-16T05:15:25.796Z,100401.25
2023-12-16T05:17:56.339Z,100404.31
2023-12-16T05:20:26.921Z,100405.31
2023-12-16T05:22:57.902Z,100412.09
2023-12-16T05:25:31.965Z,100403.63
2023-12-16T05:28:03.308Z,100403.06
2023-12-16T05:30:33.961Z,100407.03
2023-12-16T05:33:04.608Z,100406.13
2023-12-16T05:35:35.430Z,100407.03
2023-12-16T05:38:05.990Z,100414.69
2023-12-16T05:40:39.242Z,100407.72
2023-12-16T05:43:10.066Z,100407.22
2023-12-16T05:45:40.650Z,100416.22
2023-12-16T05:48:09.153Z,100407.66
2023-12-16T05:50:39.730Z,100405.38
2023-12-16T05:53:10.267Z,100405.19
2023-12-16T05:55:45.392Z,100411.28
2023-12-16T05:58:17.900Z,100409.03
2023-12-16T06:00:50.148Z,100418.94
2023-12-16T06:03:20.756Z,100403.25
2023-12-16T06:05:51.339Z,100407.94
2023-12-16T06:08:22.782Z,100416.63
2023-12-16T06:10:55.900Z,100414.44
2023-12-16T06:13:26.461Z,100418.03
2023-12-16T06:16:07.776Z,100421.09
2023-12-16T06:18:47.303Z,100424.72
2023-12-16T06:21:18.020Z,100432.47
2023-12-16T06:23:48.603Z,100433.38
2023-12-16T06:26:21.923Z,100426.53
2023-12-16T06:28:52.556Z,100429.78
2023-12-16T06:31:23.560Z,100438.00
2023-12-16T06:33:54.286Z,100436.00
2023-12-16T06:36:24.902Z,100435.91
2023-12-16T06:38:55.365Z,100442.94
2023-12-16T06:41:30.575Z,100445.28
2023-12-16T06:44:01.605Z,100445.84
2023-12-16T06:46:32.356Z,100444.66
2023-12-16T06:49:03.236Z,100447.81
2023-12-16T06:51:33.814Z,100439.16
2023-12-16T06:54:04.829Z,100441.78
2023-12-16T06:56:37.964Z,100440.16
2023-12-16T06:59:08.627Z,100449.63
2023-12-16T07:01:39.211Z,100456.28
2023-12-16T07:04:09.969Z,100449.97
2023-12-16T07:06:40.723Z,100446.75
2023-12-16T07:09:11.307Z,100454.03
2023-12-16T07:11:44.533Z,100459.38
2023-12-16T07:14:15.091Z,100455.94
2023-12-16T07:16:45.713Z,100459.25
2023-12-16T07:19:16.316Z,100462.88
2023-12-16T07:21:46.854Z,100457.63
2023-12-16T07:24:17.334Z,100454.69
2023-12-16T07:26:50.549Z,100455.38
2023-12-16T07:29:22.127Z,100459.91
2023-12-16T07:31:50.346Z,100466.94
2023-12-16T07:34:22.256Z,100464.47
2023-12-16T07:36:53.049Z,100467.38
2023-12-16T07:39:23.669Z,100472.88
2023-12-16T07:41:56.794Z,100468.19
2023-12-16T07:44:28.445Z,100462.75
2023-12-16T07:46:59.029Z,100466.09
2023-12-16T07:49:29.690Z,100475.56
2023-12-16T07:52:02.377Z,100473.66
2023-12-16T07:54:32.990Z,100471.88
2023-12-16T07:57:06.304Z,100469.78
2023-12-16T07:59:36.841Z,100479.31
2023-12-16T08:02:09.621Z,100490.06
2023-12-16T08:04:40.369Z,100487.03
2023-12-16T08:07:11.102Z,100487.69
2023-12-16T08:09:42.397Z,100500.03
2023-12-16T08:12:15.773Z,100508.75
2023-12-16T08:14:46.400Z,100513.00
2023-12-16T08:17:16.960Z,100515.19
2023-12-16T08:19:48.869Z,100505.47
2023-12-16T08:22:19.638Z,100524.41
2023-12-16T08:24:50.178Z,100522.78
2023-12-16T08:27:23.350Z,100521.34
2023-12-16T08:29:54.426Z,100520.97
2023-12-16T08:32:25.015Z,100526.38
2023-12-16T08:34:55.737Z,100528.63
2023-12-16T08:37:27.743Z,100537.94
2023-12-16T08:39:58.483Z,100538.75
2023-12-16T08:42:31.612Z,100530.78
2023-12-16T08:45:02.274Z,100534.44
2023-12-16T08:47:32.873Z,100536.59
2023-12-16T08:50:04.638Z,100544.72
2023-12-16T08:52:35.813Z,100544.19
2023-12-16T08:55:07.572Z,100546.81
2023-12-16T08:57:41.286Z,100544.72
2023-12-16T09:00:13.285Z,100548.44
2023-12-16T09:02:43.996Z,100543.72
2023-12-16T09:05:14.657Z,100548.91
2023-12-16T09:07:45.278Z,100550.03
2023-12-16T09:10:16.248Z,100555.56
2023-12-16T09:12:49.586Z,100545.50
2023-12-16T09:15:20.218Z,100559.06
2023-12-16T09:17:51.053Z,100561.13
2023-12-16T09:20:21.863Z,100562.94
2023-12-16T09:22:52.476Z,100569.00
2023-12-16T09:25:23.002Z,100579.13
2023-12-16T09:27:56.243Z,100569.50
2023-12-16T09:30:26.825Z,100580.72
2023-12-16T09:32:57.436Z,100581.03
2023-12-16T09:35:28.262Z,100575.38
2023-12-16T09:37:58.992Z,100574.00
2023-12-16T09:40:29.699Z,100571.38
2023-12-16T09:43:15.038Z,100580.44
2023-12-16T09:45:48.341Z,100586.22
2023-12-16T09:48:21.026Z,100589.56
2023-12-16T09:50:51.733Z,100587.66
2023-12-16T09:53:23.056Z,100585.06
2023-12-16T09:55:55.035Z,100593.53
2023-12-16T09:58:28.910Z,100593.28
2023-12-16T10:01:00.108Z,100590.63
2023-12-16T10:03:31.472Z,100586.84
2023-12-16T10:06:02.829Z,100590.03
2023-12-16T10:08:33.389Z,100591.59
2023-12-16T10:11:12.293Z,100579.59
2023-12-16T10:14:05.087Z,100577.00
2023-12-16T10:16:36.476Z,100576.16
2023-12-16T10:19:07.525Z,100574.88
2023-12-16T10:21:38.127Z,100570.41
2023-12-16T10:24:09.471Z,100565.09
2023-12-16T10:26:46.638Z,100559.34
2023-12-16T10:29:23.506Z,100555.22
2023-12-16T10:31:54.222Z,100550.72
2023-12-16T10:34:25.630Z,100563.13
2023-12-16T10:36:56.425Z,100556.84
2023-12-16T10:39:26.935Z,100556.84
2023-12-16T10:41:57.478Z,100554.19
2023-12-16T10:44:30.950Z,100553.34
2023-12-16T10:47:02.108Z,100541.59
2023-12-16T10:49:34.193Z,100543.22
2023-12-16T10:52:09.856Z,100542.63
2023-12-16T10:54:44.626Z,100540.94
2023-12-16T10:57:30.599Z,100533.31
2023-12-16T11:00:09.567Z,100539.03
2023-12-16T11:02:59.380Z,100533.13
2023-12-16T11:05:34.295Z,100529.50
2023-12-16T11:08:06.376Z,100536.06
2023-12-16T11:10:37.345Z,100531.59
2023-12-16T11:13:09.178Z,100526.91
2023-12-16T11:15:42.508Z,100529.06
2023-12-16T11:18:18.718Z,100520.31
2023-12-16T11:20:54.441Z,100520.63
2023-12-16T11:23:29.377Z,100519.13
2023-12-16T11:26:04.642Z,100513.19
2023-12-16T11:28:35.350Z,100519.53
2023-12-16T11:31:09.030Z,100524.81
2023-12-16T11:33:49.916Z,100528.41
2023-12-16T11:36:21.323Z,100520.72
2023-12-16T11:38:51.852Z,100519.47
2023-12-16T11:41:49.558Z,100527.56
2023-12-16T11:44:20.264Z,100517.22
2023-12-16T11:46:53.334Z,100520.22
2023-12-16T11:49:23.970Z,100521.38
2023-12-16T11:51:55.763Z,100519.53
2023-12-16T11:54:27.125Z,100515.44
2023-12-16T11:56:57.606Z,100524.25
2023-12-16T11:59:28.121Z,100514.53
2023-12-16T12:02:01.403Z,100516.88
2023-12-16T12:04:32.085Z,100516.16
2023-12-16T12:07:02.769Z,100511.69
2023-12-16T12:09:33.826Z,100511.31
2023-12-16T12:12:05.871Z,100508.97
2023-12-16T12:14:37.123Z,100504.78
2023-12-16T12:17:10.252Z,100503.56
2023-12-16T12:19:44.138Z,100495.91
2023-12-16T12:22:15.421Z,100494.03
2023-12-16T12:24:46.011Z,100486.44
2023-12-16T12:27:16.777Z,100484.63
2023-12-16T12:30:01.127Z,100478.16
2023-12-16T12:32:35.635Z,100475.50
2023-12-16T12:35:09.328Z,100471.25
2023-12-16T12:37:41.664Z,100466.84
2023-12-16T12:40:20.566Z,100462.59
2023-12-16T12:42:52.568Z,100451.66
2023-12-16T12:45:30.017Z,100446.13
2023-12-16T12:48:14.885Z,100443.78
2023-12-16T12:50:48.714Z,100440.16
2023-12-16T12:53:24.153Z,100440.63
2023-12-16T12:55:58.101Z,100434.25
2023-12-16T12:58:30.831Z,100435.13
2023-12-16T13:01:03.511Z,100433.94
2023-12-16T13:03:37.779Z,100429.78
2023-12-16T13:06:09.778Z,100429.41
2023-12-16T13:08:41.894Z,100418.44
2023-12-16T13:11:12.487Z,100421.88
2023-12-16T13:13:42.977Z,100409.88
2023-12-16T13:16:15.356Z,100405.25
2023-12-16T13:18:53.768Z,100406.19
2023-12-16T13:21:24.712Z,100398.34
2023-12-16T13:23:56.364Z,100399.78
2023-12-16T13:26:28.061Z,100392.84
2023-12-16T13:28:58.557Z,100391.47
2023-12-16T13:31:29.185Z,100389.16
2023-12-16T13:34:02.909Z,100395.41
2023-12-16T13:36:49.596Z,100389.84
2023-12-16T13:39:21.879Z,100386.09
2023-12-16T13:41:52.388Z,100389.47
2023-12-16T13:44:23.607Z,100391.63
2023-12-16T13:46:54.996Z,100390.91
2023-12-16T13:49:28.163Z,100392.44
2023-12-16T13:51:58.738Z,100380.00
2023-12-16T13:54:29.237Z,100383.84
2023-12-16T13:56:59.851Z,100383.84
2023-12-16T13:59:30.615Z,100390.34
2023-12-16T14:02:01.357Z,100389.47
2023-12-16T14:04:34.450Z,100387.56
2023-12-16T14:07:05.279Z,100392.66
2023-12-16T14:09:35.859Z,100387.78
2023-12-16T14:12:06.723Z,100380.69
2023-12-16T14:14:37.856Z,100377.53
2023-12-16T14:17:08.699Z,100372.44
2023-12-16T14:19:42.753Z,100377.63
2023-12-16T14:22:13.309Z,100375.41
2023-12-16T14:24:43.871Z,100374.56
2023-12-16T14:27:14.421Z,100376.50
2023-12-16T14:29:45.000Z,100375.03
2023-12-16T14:32:15.501Z,100385.00
2023-12-16T14:34:48.717Z,100388.06
2023-12-16T14:37:19.362Z,100384.59
2023-12-16T14:39:49.982Z,100380.75
2023-12-16T14:42:20.923Z,100374.50
2023-12-16T14:44:51.447Z,100381.19
2023-12-16T14:47:22.020Z,100380.00
2023-12-16T14:49:55.147Z,100383.13
2023-12-16T14:52:25.753Z,100385.16
2023-12-16T14:54:57.146Z,100370.91
2023-12-16T14:57:27.707Z,100372.72
2023-12-16T14:59:59.861Z,100364.91
2023-12-16T15:02:30.459Z,100366.53
2023-12-16T15:05:03.556Z,100361.34
2023-12-16T15:07:34.343Z,100356.06
2023-12-16T15:10:04.895Z,100353.34
2023-12-16T15:12:35.469Z,100345.38
2023-12-16T15:15:06.260Z,100345.44
2023-12-16T15:17:37.135Z,100345.59
2023-12-16T15:20:11.999Z,100352.38
2023-12-16T15:22:42.913Z,100348.63
2023-12-16T15:25:13.548Z,100338.19
2023-12-16T15:27:44.225Z,100347.06
2023-12-16T15:30:16.183Z,100334.44
2023-12-16T15:32:46.829Z,100341.47
2023-12-16T15:35:20.762Z,100339.31
2023-12-16T15:37:51.527Z,100345.06
2023-12-16T15:40:22.025Z,100347.22
2023-12-16T15:42:52.618Z,100336.25
2023-12-16T15:45:23.172Z,100333.34
2023-12-16T15:47:54.746Z,100326.47
2023-12-16T15:50:28.092Z,100330.88
2023-12-16T15:52:58.616Z,100325.63
2023-12-16T15:55:29.220Z,100323.53
2023-12-16T15:58:00.187Z,100320.16
2023-12-16T16:00:30.920Z,100324.06
2023-12-16T16:03:02.295Z,100327.25
2023-12-16T16:05:35.680Z,100331.72
2023-12-16T16:08:07.051Z,100339.78
2023-12-16T16:10:38.291Z,100348.91
2023-12-16T16:13:13.649Z,100343.00
2023-12-16T16:15:45.678Z,100334.41
2023-12-16T16:18:16.653Z,100328.47
2023-12-16T16:20:50.658Z,100330.75
2023-12-16T16:23:21.226Z,100333.44
2023-12-16T16:25:51.795Z,100334.50
2023-12-16T16:28:22.323Z,100327.63
2023-12-16T16:30:53.855Z,100325.91
2023-12-16T16:33:24.961Z,100326.41
2023-12-16T16:35:58.301Z,100332.56
2023-12-16T16:38:30.039Z,100333.03
2023-12-16T16:41:01.464Z,100336.47
2023-12-16T16:43:32.196Z,100335.81
2023-12-16T16:46:03.354Z,100339.38
2023-12-16T16:48:33.902Z,100332.00
2023-12-16T16:51:07.930Z,100329.47
2023-12-16T16:53:38.949Z,100326.38
2023-12-16T16:56:10.840Z,100330.00
2023-12-16T16:58:44.082Z,100322.94
2023-12-16T17:01:14.650Z,100335.22
2023-12-16T17:03:45.241Z,100331.16
2023-12-16T17:06:18.609Z,100339.19
2023-12-16T17:08:49.294Z,100339.44
2023-12-16T17:11:20.845Z,100331.22
2023-12-16T17:13:51.357Z,100343.44
2023-12-16T17:16:22.195Z,100350.81
2023-12-16T17:18:52.962Z,100344.13
2023-12-16T17:21:26.191Z,100338.47
2023-12-16T17:23:56.920Z,100341.34
2023-12-16T17:26:27.472Z,100345.66
2023-12-16T17:28:59.034Z,100338.28
2023-12-16T17:31:29.595Z,100343.41
2023-12-16T17:34:00.299Z,100335.59
2023-12-16T17:36:33.485Z,100335.75
2023-12-16T17:39:04.093Z,100336.06
2023-12-16T17:41:35.993Z,100339.81
2023-12-16T17:44:07.552Z,100333.69
2023-12-16T17:46:38.300Z,100334.78
2023-12-16T17:49:09.008Z,100334.81
2023-12-16T17:51:42.813Z,100336.50
2023-12-16T17:54:13.407Z,100339.06
2023-12-16T17:56:44.636Z,100346.38
2023-12-16T17:59:15.815Z,100336.88
2023-12-16T18:01:49.864Z,100339.59
2023-12-16T18:04:21.093Z,100342.72
2023-12-16T18:06:55.159Z,100352.91
2023-12-16T18:09:25.676Z,100345.50
2023-12-16T18:11:58.706Z,100350.69
2023-12-16T18:14:29.524Z,100348.31
2023-12-16T18:17:00.057Z,100360.38
2023-12-16T18:19:30.979Z,100357.25
2023-12-16T18:22:04.137Z,100357.31
2023-12-16T18:24:34.689Z,100352.16
2023-12-16T18:27:05.251Z,100357.00
2023-12-16T18:29:39.393Z,100368.59
2023-12-16T18:32:11.010Z,100362.16
2023-12-16T18:34:41.603Z,100364.16
2023-12-16T18:37:14.851Z,100381.94
2023-12-16T18:39:45.351Z,100386.34
2023-12-16T18:42:15.924Z,100391.59
2023-12-16T18:44:46.631Z,100391.97
2023-12-16T18:47:17.174Z,100387.16
2023-12-16T18:49:47.761Z,100385.47
2023-12-16T18:52:20.897Z,100379.91
2023-12-16T18:54:54.143Z,100377.22
2023-12-16T18:57:24.717Z,100367.50
2023-12-16T18:59:55.421Z,100373.22
2023-12-16T19:02:27.735Z,100373.72
2023-12-16T19:04:58.482Z,100367.44
2023-12-16T19:07:31.800Z,100368.53
2023-12-16T19:10:05.904Z,100364.03
2023-12-16T19:12:36.775Z,100365.31
2023-12-16T19:15:07.941Z,100364.56
2023-12-16T19:17:38.834Z,100365.66
2023-12-16T19:20:11.314Z,100371.44
2023-12-16T19:22:44.991Z,100368.25
2023-12-16T19:25:15.513Z,100376.53
2023-12-16T19:27:46.109Z,100377.22
2023-12-16T19:30:16.983Z,100397.13
2023-12-16T19:32:47.691Z,100396.91
2023-12-16T19:35:18.395Z,100398.50
2023-12-16T19:37:52.383Z,100408.53
2023-12-16T19:40:23.025Z,100406.03
2023-12-16T19:42:53.626Z,100417.09
2023-12-16T19:45:24.135Z,100413.63
2023-12-16T19:47:54.768Z,100414.97
2023-12-16T19:50:25.386Z,100419.84
2023-12-16T19:52:58.524Z,100425.75
2023-12-16T19:55:30.179Z,100421.78
2023-12-16T19:58:00.938Z,100419.25
2023-12-16T20:00:31.601Z,100424.38
2023-12-16T20:03:02.336Z,100427.91
2023-12-16T20:05:33.058Z,100430.34
2023-12-16T20:08:06.247Z,100427.66
2023-12-16T20:10:40.920Z,100439.06
2023-12-16T20:13:11.462Z,100444.00
2023-12-16T20:15:42.322Z,100448.97
2023-12-16T20:18:15.724Z,100443.94
2023-12-16T20:20:46.966Z,100448.16
2023-12-16T20:23:20.214Z,100453.31
2023-12-16T20:25:50.900Z,100447.56
2023-12-16T20:28:21.630Z,100443.44
2023-12-16T20:30:52.219Z,100445.88
2023-12-16T20:33:23.293Z,100438.47
2023-12-16T20:35:54.076Z,100436.38
2023-12-16T20:38:39.634Z,100439.97
2023-12-16T20:41:13.291Z,100441.53
2023-12-16T20:43:43.971Z,100435.63
2023-12-16T20:46:15.338Z,100433.91
2023-12-16T20:48:46.518Z,100439.19
2023-12-16T20:51:17.178Z,100433.25
2023-12-16T20:53:50.311Z,100433.94
2023-12-16T20:56:21.203Z,100422.59
2023-12-16T20:58:51.695Z,100414.25
2023-12-16T21:01:22.192Z,100404.84
2023-12-16T21:03:52.714Z,100395.78
2023-12-16T21:06:23.531Z,100401.31
2023-12-16T21:08:56.718Z,100405.97
2023-12-16T21:11:27.304Z,100396.84
2023-12-16T21:13:57.908Z,100390.84
2023-12-16T21:16:28.591Z,100393.56
2023-12-16T21:18:59.531Z,100388.44
2023-12-16T21:21:30.117Z,100388.31
2023-12-16T21:24:03.284Z,100389.81
2023-12-16T21:26:33.809Z,100390.63
2023-12-16T21:29:04.388Z,100383.84
2023-12-16T21:31:34.959Z,100393.47
2023-12-16T21:34:05.700Z,100395.66
2023-12-16T21:36:36.269Z,100402.38
2023-12-16T21:39:09.530Z,100406.44
2023-12-16T21:41:40.195Z,100411.53
2023-12-16T21:44:10.813Z,100426.69
2023-12-16T21:46:41.349Z,100428.47
2023-12-16T21:49:12.076Z,100420.69
2023-12-16T21:51:42.686Z,100410.13
2023-12-16T21:54:16.157Z,100414.56
2023-12-16T21:56:46.820Z,100415.94
2023-12-16T21:59:17.536Z,100415.94
2023-12-16T22:01:48.231Z,100406.22
2023-12-16T22:04:18.833Z,100397.50
2023-12-16T22:06:49.409Z,100393.97
2023-12-16T22:09:22.921Z,100396.63
2023-12-16T22:11:53.697Z,100408.13
2023-12-16T22:14:24.601Z,100402.31
2023-12-16T22:16:55.081Z,100402.72
2023-12-16T22:19:25.736Z,100397.56
2023-12-16T22:21:56.323Z,100382.56
2023-12-16T22:24:29.435Z,100372.53
2023-12-16T22:27:00.185Z,100387.59
2023-12-16T22:29:30.698Z,100388.50
2023-12-16T22:32:01.231Z,100388.03
2023-12-16T22:34:32.773Z,100392.53
2023-12-16T22:37:03.909Z,100385.31
2023-12-16T22:39:37.059Z,100397.94
2023-12-16T22:42:08.346Z,100404.47
2023-12-16T22:44:39.300Z,100411.78
2023-12-16T22:47:09.946Z,100411.91
2023-12-16T22:49:40.735Z,100420.06
2023-12-16T22:52:11.546Z,100410.16
2023-12-16T22:54:44.733Z,100407.47
2023-12-16T22:57:15.344Z,100398.09
2023-12-16T22:59:46.075Z,100392.19
2023-12-16T23:02:16.727Z,100398.75
2023-12-16T23:04:47.295Z,100392.53
2023-12-16T23:07:17.971Z,100375.31
2023-12-16T23:09:51.040Z,100368.94
2023-12-16T23:12:21.583Z,100367.38
2023-12-16T23:14:52.057Z,100374.22
2023-12-16T23:17:22.908Z,100375.19
2023-12-16T23:19:53.729Z,100368.88
2023-12-16T23:22:24.315Z,100368.00
2023-12-16T23:24:57.588Z,100366.75
2023-12-16T23:27:28.176Z,100356.50
2023-12-16T23:29:59.857Z,100355.69
2023-12-16T23:32:30.518Z,100356.03
2023-12-16T23:35:01.346Z,100362.06
2023-12-16T23:37:31.929Z,100364.06
2023-12-16T23:40:05.214Z,100361.78
2023-12-16T23:42:35.787Z,100371.44
2023-12-16T23:45:06.669Z,100369.88
2023-12-16T23:47:37.421Z,100367.25
2023-12-16T23:50:09.207Z,100374.69
2023-12-16T23:52:39.768Z,100371.25
2023-12-16T23:55:14.235Z,100367.94
2023-12-16T23:57:45.120Z,100365.31
